Providence, North Carolina
Current Conditions -  °F | °C
As of 6:53 AM on Sunday 21 Dec 2014 (Local Time) from KDAN Reporting Station
Overcast Overcast  
Wind Chill: 37°   Ceiling: 6000
Heat Index: 37°   Visibility: 9mi
Dew Point: 33°   Wind: 0mph
Humidity: 86%   Direction: NA
Pressure: 30.29"   Gusts: NA
Location:  36.51°N, 79.37°W
Report Text: KDAN 211153Z AUTO 00000KT 9SM OVC060 03/01 A3029 RMK AO2 SLP255 T00280006 10028 20028 53009
Loading
Personal Weather Stations






























Interactive Weather Map New forecast layout! Learn more

10-Day Weather Forecast

Advertisements
Track Severe Weather on mobile